Time;durP1;ratioP1;P1;durP2;ratioP2;P2;SDS_P1;SDS_P2;PMS_P1;PMS_P2;Temp;Humidity;BMP_temperature;BMP_pressure;BME280_temperature;BME280_humidity;BME280_pressure;Samples;Min_cycle;Max_cycle;Signal;HPM_P1;HPM_P2
2023/06/11 00:00:23;;;;;;;4.85;2.47;;;;;;;;;;5098680;28;20051;-64
2023/06/11 00:02:53;;;;;;;8.63;2.60;;;;;;;;;;5109843;28;20056;-64
2023/06/11 00:05:22;;;;;;;4.82;1.90;;;;;;;;;;5105202;28;20034;-64
2023/06/11 00:07:48;;;;;;;5.13;2.13;;;;;;;;;;5100923;28;20103;-64
2023/06/11 00:10:15;;;;;;;4.50;1.95;;;;;;;;;;5111790;28;20034;-64
2023/06/11 00:12:40;;;;;;;5.32;1.85;;;;;;;;;;5099640;28;20024;-64
2023/06/11 00:15:06;;;;;;;7.88;2.00;;;;;;;;;;5107021;28;20158;-64
2023/06/11 00:17:33;;;;;;;6.00;2.08;;;;;;;;;;5106594;28;20507;-66
2023/06/11 00:20:01;;;;;;;5.22;1.90;;;;;;;;;;5099634;28;20163;-66
2023/06/11 00:22:30;;;;;;;5.20;2.20;;;;;;;;;;5111313;28;20029;-64
2023/06/11 00:24:56;;;;;;;5.45;1.90;;;;;;;;;;5101488;28;20038;-65
2023/06/11 00:27:22;;;;;;;4.35;2.20;;;;;;;;;;5104656;28;20107;-64
2023/06/11 00:29:47;;;;;;;7.72;2.00;;;;;;;;;;5108659;28;20051;-65
2023/06/11 00:32:13;;;;;;;10.80;2.22;;;;;;;;;;5098049;28;20056;-64
2023/06/11 00:34:38;;;;;;;8.98;1.98;;;;;;;;;;5110313;28;20063;-64
2023/06/11 00:37:04;;;;;;;6.25;2.08;;;;;;;;;;5096064;28;20052;-64
2023/06/11 00:39:29;;;;;;;5.45;1.90;;;;;;;;;;5106264;28;20552;-64
2023/06/11 00:41:57;;;;;;;3.58;2.00;;;;;;;;;;5099631;28;20020;-64
2023/06/11 00:44:23;;;;;;;7.03;2.10;;;;;;;;;;5111202;28;20034;-65
2023/06/11 00:46:51;;;;;;;7.72;2.13;;;;;;;;;;5099969;28;20027;-64
2023/06/11 00:49:17;;;;;;;5.78;2.03;;;;;;;;;;5105002;28;20111;-64
2023/06/11 00:51:44;;;;;;;13.25;2.67;;;;;;;;;;5094443;28;20024;-64
2023/06/11 00:54:16;;;;;;;7.57;2.30;;;;;;;;;;5094284;28;20031;-64
2023/06/11 00:56:43;;;;;;;4.03;2.20;;;;;;;;;;5096194;28;20462;-65
2023/06/11 00:59:10;;;;;;;7.70;2.13;;;;;;;;;;5108630;28;20037;-65
2023/06/11 01:02:16;;;;;;;4.60;1.92;;;;;;;;;;5093949;28;20060;-64
2023/06/11 01:04:44;;;;;;;6.40;1.90;;;;;;;;;;5031561;28;20029;-64
2023/06/11 01:07:15;;;;;;;6.28;1.92;;;;;;;;;;5031486;28;20158;-64
2023/06/11 01:09:43;;;;;;;5.95;2.08;;;;;;;;;;5031748;28;20049;-64
2023/06/11 01:12:09;;;;;;;10.93;2.05;;;;;;;;;;5031687;28;20116;-64
2023/06/11 01:14:35;;;;;;;5.72;2.03;;;;;;;;;;5031602;28;20538;-64
2023/06/11 01:17:06;;;;;;;7.82;2.20;;;;;;;;;;5031497;28;20179;-64
2023/06/11 01:19:48;;;;;;;3.17;1.98;;;;;;;;;;5031439;28;20052;-64
2023/06/11 01:22:21;;;;;;;4.80;1.75;;;;;;;;;;5031426;28;20045;-64
2023/06/11 01:25:11;;;;;;;4.18;2.00;;;;;;;;;;5031649;28;20403;-64
2023/06/11 01:27:46;;;;;;;3.80;2.15;;;;;;;;;;5031243;28;20115;-64
2023/06/11 01:30:17;;;;;;;5.25;2.08;;;;;;;;;;5031456;28;20594;-64
2023/06/11 01:32:52;;;;;;;5.60;1.90;;;;;;;;;;5031289;28;20034;-64
2023/06/11 01:35:17;;;;;;;8.82;1.98;;;;;;;;;;5031455;28;20045;-64
2023/06/11 01:37:45;;;;;;;9.52;1.92;;;;;;;;;;5031117;28;20087;-64
2023/06/11 01:40:13;;;;;;;7.97;2.30;;;;;;;;;;5037542;28;20033;-65
2023/06/11 01:42:38;;;;;;;5.43;2.05;;;;;;;;;;5093133;28;20480;-64
2023/06/11 01:45:05;;;;;;;4.40;1.80;;;;;;;;;;5095717;28;20081;-64
2023/06/11 01:47:31;;;;;;;6.38;2.17;;;;;;;;;;5113014;28;20060;-64
2023/06/11 01:49:57;;;;;;;6.10;2.00;;;;;;;;;;5108641;28;20024;-64
2023/06/11 01:52:24;;;;;;;4.50;1.88;;;;;;;;;;5113518;28;20023;-64
2023/06/11 01:54:50;;;;;;;13.18;1.90;;;;;;;;;;5113613;28;20057;-64
2023/06/11 01:57:15;;;;;;;7.75;2.00;;;;;;;;;;5100709;28;20060;-64
2023/06/11 01:59:41;;;;;;;8.30;2.10;;;;;;;;;;5093256;28;20031;-64
2023/06/11 02:02:06;;;;;;;5.53;1.85;;;;;;;;;;5100411;28;20027;-64
2023/06/11 02:04:32;;;;;;;3.80;1.83;;;;;;;;;;5113359;28;20086;-64
2023/06/11 02:06:57;;;;;;;4.20;2.05;;;;;;;;;;5112250;28;20102;-64
2023/06/11 02:09:22;;;;;;;7.55;1.80;;;;;;;;;;5110767;28;20465;-64
2023/06/11 02:11:48;;;;;;;9.32;2.08;;;;;;;;;;5113312;28;20514;-64
2023/06/11 02:14:13;;;;;;;5.15;2.30;;;;;;;;;;5101924;28;20144;-64
2023/06/11 02:16:39;;;;;;;5.15;1.80;;;;;;;;;;5092770;28;20025;-64
2023/06/11 02:19:04;;;;;;;6.47;1.85;;;;;;;;;;5100058;28;20046;-64
2023/06/11 02:21:30;;;;;;;4.57;1.88;;;;;;;;;;5113291;28;20330;-64
2023/06/11 02:23:55;;;;;;;5.00;2.13;;;;;;;;;;5113117;28;20118;-64
2023/06/11 02:26:21;;;;;;;4.30;1.70;;;;;;;;;;5091591;28;20035;-64
2023/06/11 02:28:47;;;;;;;4.38;1.75;;;;;;;;;;5092779;28;20082;-64
2023/06/11 02:31:12;;;;;;;4.78;2.08;;;;;;;;;;5105420;28;20472;-64
2023/06/11 02:33:37;;;;;;;8.15;2.45;;;;;;;;;;5113188;28;20027;-64
2023/06/11 02:36:03;;;;;;;5.72;2.10;;;;;;;;;;5112312;28;20016;-65
2023/06/11 02:38:29;;;;;;;4.90;2.00;;;;;;;;;;5095871;28;20031;-64
2023/06/11 02:40:54;;;;;;;4.32;1.90;;;;;;;;;;5113138;28;20051;-64
2023/06/11 02:43:19;;;;;;;7.80;3.40;;;;;;;;;;5112912;28;20078;-65
2023/06/11 02:45:45;;;;;;;5.95;2.28;;;;;;;;;;5112807;28;20427;-64
2023/06/11 02:48:10;;;;;;;6.43;1.92;;;;;;;;;;5106837;28;20047;-64
2023/06/11 02:50:36;;;;;;;3.80;1.90;;;;;;;;;;5092548;28;20342;-64
2023/06/11 02:53:01;;;;;;;4.90;1.90;;;;;;;;;;5092304;28;20028;-64
2023/06/11 02:55:27;;;;;;;3.47;1.90;;;;;;;;;;5092462;28;20036;-64
2023/06/11 02:57:52;;;;;;;7.70;2.17;;;;;;;;;;5092477;28;20028;-64
2023/06/11 03:00:17;;;;;;;10.02;2.45;;;;;;;;;;5104363;28;20485;-64
2023/06/11 03:02:43;;;;;;;6.35;1.95;;;;;;;;;;5117006;27;20043;-64
2023/06/11 03:05:08;;;;;;;2.83;1.60;;;;;;;;;;5116668;28;20111;-64
2023/06/11 03:07:34;;;;;;;4.75;1.92;;;;;;;;;;5110427;28;20035;-64
2023/06/11 03:09:59;;;;;;;12.05;1.95;;;;;;;;;;5108773;28;20032;-64
2023/06/11 03:12:25;;;;;;;5.85;1.65;;;;;;;;;;5101640;28;20020;-65
2023/06/11 03:14:50;;;;;;;5.18;1.98;;;;;;;;;;5096271;28;20028;-65
2023/06/11 03:17:16;;;;;;;5.00;2.17;;;;;;;;;;5103181;28;20034;-64
2023/06/11 03:19:41;;;;;;;3.45;1.95;;;;;;;;;;5116773;27;20389;-64
2023/06/11 03:22:07;;;;;;;6.97;1.80;;;;;;;;;;5116727;27;20462;-65
2023/06/11 03:24:32;;;;;;;6.35;2.00;;;;;;;;;;5095936;28;20107;-64
2023/06/11 03:26:58;;;;;;;4.28;2.10;;;;;;;;;;5096308;28;20027;-64
2023/06/11 03:29:23;;;;;;;7.85;1.90;;;;;;;;;;5109499;28;20023;-64
2023/06/11 03:31:48;;;;;;;6.90;1.80;;;;;;;;;;5116401;28;20435;-64
2023/06/11 03:34:14;;;;;;;3.75;1.90;;;;;;;;;;5109623;28;20023;-65
2023/06/11 03:36:39;;;;;;;4.97;2.05;;;;;;;;;;5095840;28;20520;-64
2023/06/11 03:39:05;;;;;;;4.32;1.77;;;;;;;;;;5103913;28;20042;-64
2023/06/11 03:41:30;;;;;;;6.20;2.38;;;;;;;;;;5116182;27;20380;-65
2023/06/11 03:43:56;;;;;;;8.43;2.13;;;;;;;;;;5115784;28;20020;-64
2023/06/11 03:46:22;;;;;;;4.22;1.85;;;;;;;;;;5106374;28;20054;-64
2023/06/11 03:48:48;;;;;;;5.07;1.95;;;;;;;;;;5095655;28;20071;-65
2023/06/11 03:51:14;;;;;;;5.88;1.80;;;;;;;;;;5095337;28;20047;-65
2023/06/11 03:53:40;;;;;;;6.57;1.80;;;;;;;;;;5095641;28;20024;-65
2023/06/11 03:56:05;;;;;;;3.15;1.70;;;;;;;;;;5094465;28;20373;-64
2023/06/11 03:58:30;;;;;;;4.15;1.83;;;;;;;;;;5107182;28;20023;-64
2023/06/11 04:00:56;;;;;;;5.00;2.03;;;;;;;;;;5115981;28;20016;-64
2023/06/11 04:03:21;;;;;;;11.00;2.00;;;;;;;;;;5115683;28;20027;-64
2023/06/11 04:05:47;;;;;;;4.50;2.10;;;;;;;;;;5115899;28;20023;-65
2023/06/11 04:08:12;;;;;;;4.82;1.65;;;;;;;;;;5104085;28;20032;-64
2023/06/11 04:10:38;;;;;;;4.20;1.90;;;;;;;;;;5111843;28;20055;-64
2023/06/11 04:13:03;;;;;;;7.78;1.70;;;;;;;;;;5115420;28;20024;-64
2023/06/11 04:15:30;;;;;;;5.50;1.83;;;;;;;;;;5110686;28;20055;-64
2023/06/11 04:17:56;;;;;;;13.90;1.85;;;;;;;;;;5094944;28;20081;-65
2023/06/11 04:20:21;;;;;;;3.80;1.80;;;;;;;;;;5094814;28;20024;-64
2023/06/11 04:22:46;;;;;;;4.85;2.08;;;;;;;;;;5113627;28;20551;-65
2023/06/11 04:25:12;;;;;;;5.75;1.75;;;;;;;;;;5114070;28;20057;-65
2023/06/11 04:27:38;;;;;;;5.38;1.88;;;;;;;;;;5108596;28;20028;-65
2023/06/11 04:30:06;;;;;;;5.80;1.90;;;;;;;;;;5094798;28;20077;-64
2023/06/11 04:32:34;;;;;;;3.47;1.60;;;;;;;;;;5096337;28;20474;-65
2023/06/11 04:35:02;;;;;;;6.55;1.85;;;;;;;;;;5115309;28;20027;-64
2023/06/11 04:37:29;;;;;;;4.82;1.90;;;;;;;;;;5106489;27;20469;-64
2023/06/11 04:39:56;;;;;;;6.90;2.08;;;;;;;;;;5109623;28;20132;-64
2023/06/11 04:42:24;;;;;;;5.57;2.05;;;;;;;;;;5114848;28;20027;-64
2023/06/11 04:44:50;;;;;;;3.58;1.70;;;;;;;;;;5102372;28;20028;-64
2023/06/11 04:47:16;;;;;;;3.22;1.88;;;;;;;;;;5094445;28;20402;-64
2023/06/11 04:49:44;;;;;;;5.32;2.50;;;;;;;;;;5097025;28;20227;-65
2023/06/11 04:52:09;;;;;;;7.00;2.00;;;;;;;;;;5094928;28;20031;-65
2023/06/11 04:54:35;;;;;;;7.50;2.28;;;;;;;;;;5094664;28;20020;-65
2023/06/11 04:57:00;;;;;;;5.68;1.70;;;;;;;;;;5109498;28;20024;-64
2023/06/11 04:59:26;;;;;;;8.38;2.20;;;;;;;;;;5115026;28;20114;-65
2023/06/11 05:01:53;;;;;;;3.20;1.90;;;;;;;;;;5107358;28;20024;-64
2023/06/11 05:04:19;;;;;;;4.70;2.15;;;;;;;;;;5094184;28;20024;-65
2023/06/11 05:06:45;;;;;;;5.57;1.60;;;;;;;;;;5101955;28;20072;-65
2023/06/11 05:09:14;;;;;;;5.13;1.60;;;;;;;;;;5094493;28;20028;-65
2023/06/11 05:11:44;;;;;;;4.07;2.00;;;;;;;;;;5093743;28;20028;-64
2023/06/11 05:14:10;;;;;;;3.42;1.83;;;;;;;;;;5113264;28;20488;-65
2023/06/11 05:16:36;;;;;;;4.05;2.10;;;;;;;;;;5112928;28;20085;-66
2023/06/11 05:19:03;;;;;;;6.50;2.00;;;;;;;;;;5098727;28;20511;-65
2023/06/11 05:21:28;;;;;;;4.35;1.83;;;;;;;;;;5102698;28;20484;-65
2023/06/11 05:23:54;;;;;;;6.97;1.67;;;;;;;;;;5114087;28;20024;-65
2023/06/11 05:26:32;;;;;;;6.07;1.80;;;;;;;;;;5110344;28;20035;-65
2023/06/11 05:28:58;;;;;;;9.05;1.73;;;;;;;;;;5093818;28;20428;-65
2023/06/11 05:31:23;;;;;;;5.53;1.88;;;;;;;;;;5093737;28;20024;-65
2023/06/11 05:33:49;;;;;;;4.13;1.80;;;;;;;;;;5112775;28;20412;-64
2023/06/11 05:36:16;;;;;;;6.55;2.10;;;;;;;;;;5114004;28;20019;-64
2023/06/11 05:38:42;;;;;;;9.93;2.60;;;;;;;;;;5110744;28;20034;-65
2023/06/11 05:41:08;;;;;;;3.92;1.70;;;;;;;;;;5113552;28;20023;-64
2023/06/11 05:43:33;;;;;;;7.25;2.03;;;;;;;;;;5113710;28;20027;-65
2023/06/11 05:45:58;;;;;;;3.33;1.90;;;;;;;;;;5113790;28;20089;-65
2023/06/11 05:48:26;;;;;;;7.95;1.83;;;;;;;;;;5111232;28;20081;-64
2023/06/11 05:50:52;;;;;;;6.47;2.35;;;;;;;;;;5092343;28;20184;-64
2023/06/11 05:53:17;;;;;;;2.95;1.85;;;;;;;;;;5092661;28;20055;-65
2023/06/11 05:55:43;;;;;;;4.47;1.80;;;;;;;;;;5091991;28;20109;-64
2023/06/11 05:58:08;;;;;;;5.13;1.90;;;;;;;;;;5092334;28;20024;-64
2023/06/11 06:00:34;;;;;;;4.97;2.15;;;;;;;;;;5097522;28;20378;-64
2023/06/11 06:03:01;;;;;;;4.10;2.00;;;;;;;;;;5096723;28;20484;-64
2023/06/11 06:05:27;;;;;;;8.10;2.28;;;;;;;;;;5112538;28;20035;-64
2023/06/11 06:07:52;;;;;;;7.95;1.90;;;;;;;;;;5103834;28;20050;-64
2023/06/11 06:10:17;;;;;;;3.67;1.40;;;;;;;;;;5095300;28;20016;-64
2023/06/11 06:12:43;;;;;;;4.50;1.70;;;;;;;;;;5111522;28;20028;-64
2023/06/11 06:15:09;;;;;;;3.60;2.03;;;;;;;;;;5112590;28;20024;-64
2023/06/11 06:17:34;;;;;;;5.50;1.90;;;;;;;;;;5099610;28;20032;-64
2023/06/11 06:20:00;;;;;;;3.58;2.08;;;;;;;;;;5091783;28;20035;-64
2023/06/11 06:22:25;;;;;;;3.17;1.90;;;;;;;;;;5098322;28;20041;-64
2023/06/11 06:24:51;;;;;;;4.85;1.98;;;;;;;;;;5112063;28;20028;-64
2023/06/11 06:27:16;;;;;;;6.05;1.90;;;;;;;;;;5110176;28;20072;-64
2023/06/11 06:29:41;;;;;;;3.50;2.28;;;;;;;;;;5091991;28;20075;-64
2023/06/11 06:32:08;;;;;;;5.90;2.40;;;;;;;;;;5092022;28;20370;-64
2023/06/11 06:34:34;;;;;;;3.05;2.08;;;;;;;;;;5105373;28;20028;-64
2023/06/11 06:37:00;;;;;;;8.35;2.08;;;;;;;;;;5099342;28;20031;-64
2023/06/11 06:39:26;;;;;;;3.22;1.38;;;;;;;;;;5089431;28;20043;-64
2023/06/11 06:41:51;;;;;;;4.10;2.20;;;;;;;;;;5091809;28;20466;-64
2023/06/11 06:44:17;;;;;;;5.82;2.28;;;;;;;;;;5091619;28;20452;-64
2023/06/11 06:46:42;;;;;;;5.97;2.17;;;;;;;;;;5091957;28;20020;-64
2023/06/11 06:49:08;;;;;;;6.50;1.98;;;;;;;;;;5047244;28;1297060;-64
2023/06/11 06:51:33;;;;;;;6.45;2.40;;;;;;;;;;5092663;28;20028;-64
2023/06/11 06:53:59;;;;;;;4.95;1.90;;;;;;;;;;5092521;28;20020;-64
2023/06/11 06:56:25;;;;;;;4.95;2.33;;;;;;;;;;5092599;28;20107;-64
2023/06/11 06:58:50;;;;;;;6.93;2.10;;;;;;;;;;5092340;28;20102;-64
2023/06/11 07:01:16;;;;;;;7.15;2.20;;;;;;;;;;5089893;28;20042;-65
2023/06/11 07:03:41;;;;;;;5.53;2.38;;;;;;;;;;5092893;28;20059;-64
2023/06/11 07:06:08;;;;;;;7.00;2.20;;;;;;;;;;5092675;28;20020;-64
2023/06/11 07:08:34;;;;;;;6.80;2.35;;;;;;;;;;5091887;28;20055;-65
2023/06/11 07:10:59;;;;;;;6.47;2.33;;;;;;;;;;5093555;28;20051;-64
2023/06/11 07:13:25;;;;;;;6.85;2.50;;;;;;;;;;5092475;28;20050;-64
2023/06/11 07:15:51;;;;;;;6.78;2.25;;;;;;;;;;5092893;28;20044;-65
2023/06/11 07:18:16;;;;;;;5.60;2.30;;;;;;;;;;5102317;28;20019;-64
2023/06/11 07:20:43;;;;;;;9.15;2.40;;;;;;;;;;5112750;28;20068;-64
2023/06/11 07:23:08;;;;;;;5.93;2.20;;;;;;;;;;5112170;28;20028;-65
2023/06/11 07:25:34;;;;;;;6.32;2.20;;;;;;;;;;5091422;28;20032;-64
2023/06/11 07:28:01;;;;;;;6.75;2.30;;;;;;;;;;5088958;28;20470;-64
2023/06/11 07:30:31;;;;;;;6.13;2.35;;;;;;;;;;5093116;28;20118;-64
2023/06/11 07:32:57;;;;;;;5.47;2.72;;;;;;;;;;5091933;28;20020;-65
2023/06/11 07:35:24;;;;;;;4.35;2.33;;;;;;;;;;5091878;28;20063;-64
2023/06/11 07:37:50;;;;;;;10.13;2.67;;;;;;;;;;5091721;28;20056;-65
2023/06/11 07:40:16;;;;;;;7.47;2.63;;;;;;;;;;5110324;28;20027;-65
2023/06/11 07:42:45;;;;;;;6.88;2.38;;;;;;;;;;5112353;28;20019;-65
2023/06/11 07:45:12;;;;;;;4.07;2.10;;;;;;;;;;5094642;28;20427;-66
2023/06/11 07:47:38;;;;;;;9.93;2.88;;;;;;;;;;5095415;28;20490;-65
2023/06/11 07:50:04;;;;;;;6.80;2.58;;;;;;;;;;5093234;28;20039;-65
2023/06/11 07:52:30;;;;;;;6.97;2.60;;;;;;;;;;5092842;28;20028;-65
2023/06/11 07:54:56;;;;;;;9.70;2.63;;;;;;;;;;5101664;28;20031;-64
2023/06/11 07:57:21;;;;;;;4.95;2.38;;;;;;;;;;5098434;28;20548;-65
2023/06/11 07:59:47;;;;;;;9.20;3.00;;;;;;;;;;5078113;28;20390;-67
2023/06/11 08:02:12;;;;;;;9.55;2.85;;;;;;;;;;5095492;28;20149;-65
2023/06/11 08:04:38;;;;;;;7.15;2.75;;;;;;;;;;5099630;28;20028;-65
2023/06/11 08:07:04;;;;;;;10.88;2.95;;;;;;;;;;5094894;28;20111;-65
2023/06/11 08:09:32;;;;;;;8.93;2.90;;;;;;;;;;5095116;28;20024;-65
2023/06/11 08:11:58;;;;;;;5.28;2.75;;;;;;;;;;5095145;28;20449;-65
2023/06/11 08:14:23;;;;;;;5.93;2.63;;;;;;;;;;5113481;28;20123;-65
2023/06/11 08:16:49;;;;;;;7.07;2.92;;;;;;;;;;5097274;28;20040;-65
2023/06/11 08:19:14;;;;;;;11.48;2.83;;;;;;;;;;5094520;28;20030;-66
2023/06/11 08:21:41;;;;;;;3.40;2.60;;;;;;;;;;5094726;28;20031;-64
2023/06/11 08:24:07;;;;;;;10.73;2.85;;;;;;;;;;5094724;28;20388;-64
2023/06/11 08:26:33;;;;;;;18.92;3.08;;;;;;;;;;5094732;28;20028;-64
2023/06/11 08:29:00;;;;;;;8.15;2.50;;;;;;;;;;5094644;28;20504;-64
2023/06/11 08:31:25;;;;;;;7.10;2.58;;;;;;;;;;5094792;28;20032;-64
2023/06/11 08:33:51;;;;;;;5.38;2.92;;;;;;;;;;5094181;28;20054;-65
2023/06/11 08:36:17;;;;;;;8.45;2.60;;;;;;;;;;5094364;28;20024;-65
2023/06/11 08:38:43;;;;;;;4.90;2.35;;;;;;;;;;5092168;28;20032;-66
2023/06/11 08:41:08;;;;;;;7.18;2.75;;;;;;;;;;5081273;28;20024;-64
2023/06/11 08:43:34;;;;;;;5.32;2.80;;;;;;;;;;5096094;28;20055;-65
2023/06/11 08:45:59;;;;;;;5.15;2.50;;;;;;;;;;5094395;28;20031;-65
2023/06/11 08:48:30;;;;;;;6.90;2.85;;;;;;;;;;5094042;28;20494;-65
2023/06/11 08:50:58;;;;;;;3.60;2.75;;;;;;;;;;5094434;28;20104;-65
2023/06/11 08:53:26;;;;;;;8.45;2.58;;;;;;;;;;5098500;28;20016;-66
2023/06/11 08:55:51;;;;;;;5.90;2.70;;;;;;;;;;5114179;28;20108;-65
2023/06/11 08:58:20;;;;;;;5.18;2.80;;;;;;;;;;5102311;28;20063;-65
2023/06/11 09:00:46;;;;;;;10.30;2.95;;;;;;;;;;5094697;28;20016;-65
2023/06/11 09:03:11;;;;;;;7.55;3.03;;;;;;;;;;5097410;28;20508;-65
2023/06/11 09:05:38;;;;;;;6.15;2.88;;;;;;;;;;5094385;28;20111;-65
2023/06/11 09:08:07;;;;;;;6.72;2.75;;;;;;;;;;5093181;28;20028;-65
2023/06/11 09:10:33;;;;;;;5.20;2.78;;;;;;;;;;5104575;28;20077;-65
2023/06/11 09:13:00;;;;;;;7.53;2.75;;;;;;;;;;5114550;28;20032;-66
2023/06/11 09:15:26;;;;;;;8.00;2.97;;;;;;;;;;5113522;28;20028;-66
2023/06/11 09:17:51;;;;;;;6.93;2.90;;;;;;;;;;5114155;28;20096;-66
2023/06/11 09:20:18;;;;;;;8.77;2.88;;;;;;;;;;5114106;28;20034;-65
2023/06/11 09:22:45;;;;;;;6.18;3.00;;;;;;;;;;5113956;28;20023;-66
2023/06/11 09:25:19;;;;;;;5.70;3.13;;;;;;;;;;5114245;28;20076;-66
2023/06/11 09:27:46;;;;;;;9.18;3.03;;;;;;;;;;5109971;28;20074;-66
2023/06/11 09:30:16;;;;;;;6.07;2.88;;;;;;;;;;5093824;28;20066;-65
2023/06/11 09:32:45;;;;;;;10.07;3.30;;;;;;;;;;5091337;28;20028;-65
2023/06/11 09:35:11;;;;;;;7.15;3.10;;;;;;;;;;5091333;28;20028;-65
2023/06/11 09:37:44;;;;;;;8.27;3.33;;;;;;;;;;5091543;28;20028;-65
2023/06/11 09:40:13;;;;;;;6.28;3.38;;;;;;;;;;5107814;28;20413;-65
2023/06/11 09:42:40;;;;;;;5.40;3.20;;;;;;;;;;5112215;28;20081;-65
2023/06/11 09:45:13;;;;;;;6.53;3.28;;;;;;;;;;5111872;28;20122;-65
2023/06/11 09:47:39;;;;;;;5.57;3.05;;;;;;;;;;5113410;28;20046;-66
2023/06/11 09:50:06;;;;;;;4.05;2.95;;;;;;;;;;5113992;28;20020;-66
2023/06/11 09:52:34;;;;;;;5.43;2.90;;;;;;;;;;5113771;28;20015;-64
2023/06/11 09:55:00;;;;;;;5.50;2.83;;;;;;;;;;5113778;28;20050;-63
2023/06/11 09:57:27;;;;;;;4.18;2.88;;;;;;;;;;5113654;28;20019;-64
2023/06/11 09:59:53;;;;;;;6.85;3.10;;;;;;;;;;5113562;28;20020;-65
2023/06/11 10:02:19;;;;;;;7.03;3.10;;;;;;;;;;5113377;28;20116;-65
2023/06/11 10:04:45;;;;;;;4.75;3.00;;;;;;;;;;5113438;28;20642;-65
2023/06/11 10:07:11;;;;;;;4.85;2.72;;;;;;;;;;5110609;28;20028;-65
2023/06/11 10:09:39;;;;;;;6.10;2.97;;;;;;;;;;5093004;28;20081;-65
2023/06/11 10:12:06;;;;;;;7.47;2.88;;;;;;;;;;5092904;28;20081;-65
2023/06/11 10:14:32;;;;;;;8.18;3.00;;;;;;;;;;5093134;28;20103;-65
2023/06/11 10:17:02;;;;;;;7.72;3.42;;;;;;;;;;5092468;28;20071;-65
2023/06/11 10:19:33;;;;;;;;;;;;;;;;;;5093253;28;20477;-66
2023/06/11 10:22:01;;;;;;;6.47;2.95;;;;;;;;;;5092998;28;19919;-65
2023/06/11 10:24:28;;;;;;;8.63;3.00;;;;;;;;;;5092809;28;20024;-66
2023/06/11 10:27:08;;;;;;;9.55;3.70;;;;;;;;;;5092905;28;20428;-65
2023/06/11 10:29:47;;;;;;;8.18;3.17;;;;;;;;;;5092485;28;20024;-65
2023/06/11 10:32:18;;;;;;;7.47;3.30;;;;;;;;;;5093053;28;20099;-65
2023/06/11 10:34:44;;;;;;;6.13;3.28;;;;;;;;;;5092791;28;20028;-65
2023/06/11 10:37:11;;;;;;;7.63;3.17;;;;;;;;;;5092413;28;20025;-66
2023/06/11 10:39:49;;;;;;;6.75;3.35;;;;;;;;;;5105359;28;20027;-65
2023/06/11 10:42:22;;;;;;;10.07;3.03;;;;;;;;;;5112956;28;20495;-65
2023/06/11 10:44:48;;;;;;;9.10;3.85;;;;;;;;;;5112350;28;20114;-65
2023/06/11 10:47:13;;;;;;;6.60;3.70;;;;;;;;;;5112806;28;20441;-65
2023/06/11 10:49:39;;;;;;;6.50;3.40;;;;;;;;;;5112993;28;20358;-65
2023/06/11 10:52:05;;;;;;;7.75;3.75;;;;;;;;;;5112859;28;20092;-65
2023/06/11 10:54:34;;;;;;;8.73;3.60;;;;;;;;;;5112964;28;20023;-65
2023/06/11 10:57:01;;;;;;;7.10;3.45;;;;;;;;;;5112823;28;20466;-65
2023/06/11 10:59:27;;;;;;;4.97;3.33;;;;;;;;;;5112417;28;20031;-65
2023/06/11 11:01:53;;;;;;;9.40;3.30;;;;;;;;;;5112923;28;20028;-65
2023/06/11 11:04:21;;;;;;;5.95;3.45;;;;;;;;;;5112676;28;20085;-64
2023/06/11 11:06:47;;;;;;;7.22;3.50;;;;;;;;;;5112933;28;20110;-65
2023/06/11 11:09:19;;;;;;;5.30;3.20;;;;;;;;;;5103658;28;20496;-65
2023/06/11 11:11:45;;;;;;;4.75;3.65;;;;;;;;;;5109084;28;20485;-64
2023/06/11 11:14:11;;;;;;;8.68;3.40;;;;;;;;;;5097395;28;20035;-65
2023/06/11 11:16:37;;;;;;;5.78;3.38;;;;;;;;;;5096910;28;20130;-65
2023/06/11 11:19:02;;;;;;;6.10;3.47;;;;;;;;;;5084382;28;20020;-65
2023/06/11 11:21:29;;;;;;;7.40;3.30;;;;;;;;;;5106794;28;20465;-65
2023/06/11 11:23:55;;;;;;;9.60;3.60;;;;;;;;;;5095564;28;20020;-64
2023/06/11 11:26:21;;;;;;;7.22;3.08;;;;;;;;;;5102605;28;20019;-64
2023/06/11 11:28:46;;;;;;;8.48;3.45;;;;;;;;;;5111918;28;20034;-64
2023/06/11 11:31:15;;;;;;;9.55;3.90;;;;;;;;;;5101408;28;20450;-64
2023/06/11 11:33:41;;;;;;;5.07;3.37;;;;;;;;;;5095408;28;20416;-64
2023/06/11 11:36:07;;;;;;;7.40;3.50;;;;;;;;;;5105300;28;20023;-65
2023/06/11 11:38:35;;;;;;;4.50;3.38;;;;;;;;;;5106753;28;20031;-66
2023/06/11 11:41:00;;;;;;;5.43;3.33;;;;;;;;;;5115740;28;20388;-66
2023/06/11 11:43:44;;;;;;;9.57;3.25;;;;;;;;;;5106836;28;20028;-66
2023/06/11 11:46:23;;;;;;;10.50;3.78;;;;;;;;;;5085953;28;20435;-65
2023/06/11 11:48:54;;;;;;;7.27;3.23;;;;;;;;;;5104961;28;20051;-66
2023/06/11 11:51:20;;;;;;;9.15;3.50;;;;;;;;;;5097688;28;20533;-65
2023/06/11 11:53:46;;;;;;;6.57;3.30;;;;;;;;;;5095207;28;20031;-64
2023/06/11 11:56:12;;;;;;;5.03;3.25;;;;;;;;;;5095068;28;20016;-65
2023/06/11 11:58:39;;;;;;;6.38;3.28;;;;;;;;;;5104237;28;20015;-64
2023/06/11 12:01:09;;;;;;;6.68;4.13;;;;;;;;;;5102463;28;20020;-64
2023/06/11 12:03:36;;;;;;;6.75;3.50;;;;;;;;;;5112567;28;20028;-64
2023/06/11 12:06:06;;;;;;;5.82;3.42;;;;;;;;;;5111325;28;20504;-64
2023/06/11 12:08:32;;;;;;;11.43;3.92;;;;;;;;;;5099687;28;20043;-64
2023/06/11 12:10:59;;;;;;;6.13;3.70;;;;;;;;;;5106996;28;20074;-64
2023/06/11 12:13:25;;;;;;;9.43;3.88;;;;;;;;;;5099467;28;20396;-63
2023/06/11 12:15:51;;;;;;;6.25;3.58;;;;;;;;;;5111691;28;20388;-63
2023/06/11 12:18:17;;;;;;;5.70;3.80;;;;;;;;;;5101212;28;20023;-65
2023/06/11 12:20:42;;;;;;;7.47;3.38;;;;;;;;;;5109752;28;20031;-65
2023/06/11 12:23:08;;;;;;;5.05;3.55;;;;;;;;;;5101471;28;20420;-68
2023/06/11 12:25:34;;;;;;;5.03;3.08;;;;;;;;;;5111302;28;20039;-64
2023/06/11 12:28:00;;;;;;;8.20;3.58;;;;;;;;;;5094623;28;20016;-64
2023/06/11 12:30:26;;;;;;;8.32;3.70;;;;;;;;;;5100036;28;20011;-64
2023/06/11 12:32:52;;;;;;;6.93;3.70;;;;;;;;;;5106035;28;20027;-64
2023/06/11 12:35:18;;;;;;;5.45;3.55;;;;;;;;;;5098404;28;20030;-64
2023/06/11 12:37:45;;;;;;;7.10;3.58;;;;;;;;;;5093950;28;20503;-64
2023/06/11 12:40:12;;;;;;;6.88;3.67;;;;;;;;;;5110755;28;20067;-64
2023/06/11 12:42:37;;;;;;;4.53;3.20;;;;;;;;;;5113899;28;20102;-64
2023/06/11 12:45:03;;;;;;;9.75;3.47;;;;;;;;;;5114884;28;20528;-64
2023/06/11 12:47:29;;;;;;;5.82;3.15;;;;;;;;;;5112684;28;20040;-64
2023/06/11 12:49:54;;;;;;;7.72;3.22;;;;;;;;;;5115194;28;20074;-64
2023/06/11 12:52:20;;;;;;;6.13;3.50;;;;;;;;;;5114912;28;20024;-64
2023/06/11 12:54:46;;;;;;;5.93;3.38;;;;;;;;;;5112812;28;20427;-64
2023/06/11 12:57:11;;;;;;;7.82;3.40;;;;;;;;;;5113000;28;20062;-64
2023/06/11 12:59:40;;;;;;;6.43;3.85;;;;;;;;;;5112848;28;20399;-64
2023/06/11 13:02:05;;;;;;;7.03;3.40;;;;;;;;;;5113038;28;20024;-64
2023/06/11 13:04:31;;;;;;;5.22;3.72;;;;;;;;;;5112829;28;20039;-64
2023/06/11 13:06:57;;;;;;;4.45;3.38;;;;;;;;;;5112715;28;20384;-64
2023/06/11 13:09:24;;;;;;;8.70;3.10;;;;;;;;;;5111998;28;20019;-65
2023/06/11 13:11:49;;;;;;;10.65;3.60;;;;;;;;;;5091165;28;20116;-64
2023/06/11 13:14:15;;;;;;;7.13;3.00;;;;;;;;;;5084372;28;20063;-66
2023/06/11 13:16:40;;;;;;;7.65;3.58;;;;;;;;;;5100745;28;20028;-66
2023/06/11 13:19:05;;;;;;;8.90;3.10;;;;;;;;;;5094169;28;20024;-66
2023/06/11 13:21:31;;;;;;;11.77;3.47;;;;;;;;;;5094471;28;20020;-66
2023/06/11 13:23:56;;;;;;;9.48;4.47;;;;;;;;;;5110406;28;20024;-65
2023/06/11 13:26:23;;;;;;;4.35;3.50;;;;;;;;;;5114444;28;20031;-65
2023/06/11 13:28:49;;;;;;;7.15;3.45;;;;;;;;;;5100905;28;20085;-65
2023/06/11 13:31:15;;;;;;;5.05;2.80;;;;;;;;;;5093933;28;20427;-65
2023/06/11 13:33:41;;;;;;;7.43;3.45;;;;;;;;;;5100872;28;20495;-65
2023/06/11 13:36:07;;;;;;;8.98;3.80;;;;;;;;;;5103458;28;20024;-66
2023/06/11 13:38:33;;;;;;;4.20;3.17;;;;;;;;;;5106304;28;20027;-65
2023/06/11 13:41:00;;;;;;;5.50;3.35;;;;;;;;;;5113735;28;20027;-66
2023/06/11 13:43:26;;;;;;;10.43;3.80;;;;;;;;;;5113306;28;20496;-65
2023/06/11 13:45:53;;;;;;;7.53;3.40;;;;;;;;;;5113664;28;20032;-67
2023/06/11 13:48:20;;;;;;;8.95;4.05;;;;;;;;;;5103967;28;20058;-66
2023/06/11 13:50:47;;;;;;;9.23;3.90;;;;;;;;;;5093852;28;20020;-66
2023/06/11 13:53:14;;;;;;;7.13;3.65;;;;;;;;;;5109462;28;20032;-67
2023/06/11 13:55:40;;;;;;;7.32;3.28;;;;;;;;;;5099987;28;20039;-66
2023/06/11 13:58:06;;;;;;;6.55;3.10;;;;;;;;;;5102691;28;20020;-66
2023/06/11 14:00:31;;;;;;;5.05;3.38;;;;;;;;;;5093285;28;20035;-65
2023/06/11 14:02:57;;;;;;;5.63;3.70;;;;;;;;;;5086197;28;20020;-65
2023/06/11 14:05:24;;;;;;;10.63;4.00;;;;;;;;;;5113328;28;20489;-65
2023/06/11 14:07:50;;;;;;;4.53;3.25;;;;;;;;;;5096529;28;20457;-65
2023/06/11 14:10:16;;;;;;;7.32;3.40;;;;;;;;;;5092837;28;20051;-65
2023/06/11 14:12:41;;;;;;;5.45;2.75;;;;;;;;;;5092810;28;20085;-65
2023/06/11 14:15:07;;;;;;;7.45;3.30;;;;;;;;;;5092850;28;20046;-65
2023/06/11 14:17:37;;;;;;;4.63;3.28;;;;;;;;;;5092662;28;20028;-65
2023/06/11 14:20:04;;;;;;;5.35;3.38;;;;;;;;;;5092684;28;20024;-65
2023/06/11 14:22:31;;;;;;;6.68;3.58;;;;;;;;;;5092636;28;20508;-65
2023/06/11 14:24:58;;;;;;;7.45;3.92;;;;;;;;;;5092662;28;20032;-65
2023/06/11 14:27:23;;;;;;;5.22;3.40;;;;;;;;;;5092505;28;20119;-66
2023/06/11 14:29:49;;;;;;;6.53;3.50;;;;;;;;;;5089496;28;20116;-66
2023/06/11 14:32:14;;;;;;;6.15;3.60;;;;;;;;;;5081228;28;20036;-65
2023/06/11 14:34:40;;;;;;;13.00;4.10;;;;;;;;;;5072416;28;20066;-65
2023/06/11 14:37:05;;;;;;;5.30;3.65;;;;;;;;;;5077247;28;20016;-65
2023/06/11 14:39:30;;;;;;;7.25;3.97;;;;;;;;;;5104327;28;20053;-65